Time;durP1;ratioP1;P1;durP2;ratioP2;P2;SDS_P1;SDS_P2;PMS_P1;PMS_P2;Temp;Humidity;BMP_temperature;BMP_pressure;BME280_temperature;BME280_humidity;BME280_pressure;Samples;Min_cycle;Max_cycle;Signal;HPM_P1;HPM_P2
2022/03/27 00:00:16;;;;;;;;;;;;;;;;;;5109845;28;19916;-79
2022/03/27 00:02:42;;;;;;;;;;;;;;;;;;5113155;28;19927;-78
2022/03/27 00:05:08;;;;;;;;;;;;;;;;;;5111385;28;19916;-78
2022/03/27 00:07:33;;;;;;;;;;;;;;;;;;5111853;28;19916;-81
2022/03/27 00:09:59;;;;;;;;;;;;;;;;;;5111121;28;20297;-79
2022/03/27 00:12:24;;;;;;;;;;;;;;;;;;5107512;28;19962;-79
2022/03/27 00:14:49;;;;;;;;;;;;;;;;;;5109231;28;20435;-79
2022/03/27 00:17:15;;;;;;;;;;;;;;;;;;5108045;28;19944;-80
2022/03/27 00:19:40;;;;;;;;;;;;;;;;;;5110758;28;19907;-79
2022/03/27 00:22:05;;;;;;;;;;;;;;;;;;5136144;27;20363;-79
2022/03/27 00:24:31;;;;;;;;;;;;;;;;;;5155115;27;19924;-80
2022/03/27 00:26:56;;;;;;;;;;;;;;;;;;5155043;27;19937;-80
2022/03/27 00:29:22;;;;;;;;;;;;;;;;;;5154095;27;19915;-79
2022/03/27 00:31:47;;;;;;;;;;;;;;;;;;5152297;27;19915;-79
2022/03/27 00:34:13;;;;;;;;;;;;;;;;;;5152833;27;20002;-78
2022/03/27 00:36:38;;;;;;;;;;;;;;;;;;5152742;27;19915;-78
2022/03/27 00:39:03;;;;;;;;;;;;;;;;;;5151270;27;19998;-79
2022/03/27 00:41:30;;;;;;;;;;;;;;;;;;5151407;27;19915;-79
2022/03/27 00:43:56;;;;;;;;;;;;;;;;;;5152767;27;19978;-79
2022/03/27 00:46:21;;;;;;;;;;;;;;;;;;5150738;27;19915;-78
2022/03/27 00:48:46;;;;;;;;;;;;;;;;;;5150409;27;19915;-78
2022/03/27 00:51:12;;;;;;;;;;;;;;;;;;5145600;27;19922;-78
2022/03/27 00:53:37;;;;;;;;;;;;;;;;;;5130278;27;19916;-78
2022/03/27 00:56:03;;;;;;;;;;;;;;;;;;5129639;28;19946;-78
2022/03/27 00:58:30;;;;;;;;;;;;;;;;;;5129899;28;19964;-78
2022/03/27 01:01:02;;;;;;;;;;;;;;;;;;5130442;28;19923;-78
2022/03/27 01:03:27;;;;;;;;;;;;;;;;;;5128161;28;19903;-78
2022/03/27 01:05:54;;;;;;;;;;;;;;;;;;5129980;28;19941;-78
2022/03/27 01:11:14;;;;;;;;;;;;;;;;;;5131255;28;19922;-78
2022/03/27 01:13:43;;;;;;;;;;;;;;;;;;5131588;28;19915;-79
2022/03/27 01:16:38;;;;;;;;;;;;;;;;;;5130349;28;19915;-78
2022/03/27 01:19:05;;;;;;;;;;;;;;;;;;5106727;28;19916;-78
2022/03/27 01:21:30;;;;;;;;;;;;;;;;;;5110364;28;19956;-79
2022/03/27 01:23:56;;;;;;;;;;;;;;;;;;5108789;28;19927;-79
2022/03/27 01:26:23;;;;;;;;;;;;;;;;;;5108299;28;19994;-78
2022/03/27 01:28:48;;;;;;;;;;;;;;;;;;5108417;28;19916;-78
2022/03/27 01:31:13;;;;;;;;;;;;;;;;;;5108459;28;19923;-78
2022/03/27 01:33:39;;;;;;;;;;;;;;;;;;5106478;28;19920;-78
2022/03/27 01:36:04;;;;;;;;;;;;;;;;;;5087661;28;20014;-79
2022/03/27 01:38:30;;;;;;;;;;;;;;;;;;5109305;28;19923;-78
2022/03/27 01:40:55;;;;;;;;;;;;;;;;;;5108666;28;19923;-78
2022/03/27 01:43:20;;;;;;;;;;;;;;;;;;5106360;28;19955;-78
2022/03/27 01:45:47;;;;;;;;;;;;;;;;;;5108029;28;19979;-79
2022/03/27 01:48:12;;;;;;;;;;;;;;;;;;5108305;28;20293;-78
2022/03/27 01:50:38;;;;;;;;;;;;;;;;;;5108453;28;19916;-79
2022/03/27 01:53:03;;;;;;;;;;;;;;;;;;5113345;28;20274;-79
2022/03/27 01:55:28;;;;;;;;;;;;;;;;;;5111586;28;19916;-78
2022/03/27 01:57:54;;;;;;;;;;;;;;;;;;5110176;28;20003;-79
2022/03/27 02:00:19;;;;;;;;;;;;;;;;;;5111564;28;19924;-79
2022/03/27 02:02:45;;;;;;;;;;;;;;;;;;5111841;28;19998;-78
2022/03/27 02:05:11;;;;;;;;;;;;;;;;;;5110172;28;19919;-79
2022/03/27 02:07:37;;;;;;;;;;;;;;;;;;5111109;28;19916;-78
2022/03/27 02:10:06;;;;;;;;;;;;;;;;;;5108683;28;19923;-78
2022/03/27 02:12:35;;;;;;;;;;;;;;;;;;5109834;28;19916;-78
2022/03/27 02:15:01;;;;;;;;;;;;;;;;;;5109148;28;19983;-79
2022/03/27 02:17:26;;;;;;;;;;;;;;;;;;5109399;28;20342;-78
2022/03/27 02:19:51;;;;;;;;;;;;;;;;;;5109519;28;19948;-78
2022/03/27 02:22:16;;;;;;;;;;;;;;;;;;5109388;28;19920;-79
2022/03/27 02:24:42;;;;;;;;;;;;;;;;;;5107139;28;19920;-78
2022/03/27 02:27:07;;;;;;;;;;;;;;;;;;5109452;28;19962;-80
2022/03/27 02:29:33;;;;;;;;;;;;;;;;;;5113894;28;20135;-79
2022/03/27 02:31:58;;;;;;;;;;;;;;;;;;5115112;28;19927;-79
2022/03/27 02:34:24;;;;;;;;;;;;;;;;;;5114723;28;19944;-80
2022/03/27 02:36:49;;;;;;;;;;;;;;;;;;5113133;28;19961;-79
2022/03/27 02:39:14;;;;;;;;;;;;;;;;;;5114260;28;19912;-80
2022/03/27 02:41:40;;;;;;;;;;;;;;;;;;5133028;28;19915;-79
2022/03/27 02:44:06;;;;;;;;;;;;;;;;;;5133005;28;19922;-78
2022/03/27 02:46:32;;;;;;;;;;;;;;;;;;5131737;28;19915;-78
2022/03/27 02:48:57;;;;;;;;;;;;;;;;;;5131160;28;19900;-78
2022/03/27 02:51:22;;;;;;;;;;;;;;;;;;5130821;28;19919;-78
2022/03/27 02:53:48;;;;;;;;;;;;;;;;;;5131927;28;19916;-80
2022/03/27 02:56:13;;;;;;;;;;;;;;;;;;5130509;28;19919;-79
2022/03/27 02:58:38;;;;;;;;;;;;;;;;;;5130329;28;19915;-80
2022/03/27 03:01:04;;;;;;;;;;;;;;;;;;5130415;27;19915;-78
2022/03/27 03:03:29;;;;;;;;;;;;;;;;;;5127418;28;19916;-78
2022/03/27 03:05:54;;;;;;;;;;;;;;;;;;5129173;28;19922;-80
2022/03/27 03:08:20;;;;;;;;;;;;;;;;;;5127422;28;19915;-78
2022/03/27 03:10:45;;;;;;;;;;;;;;;;;;5127544;28;20400;-78
2022/03/27 03:13:11;;;;;;;;;;;;;;;;;;5126287;28;20022;-78
2022/03/27 03:15:37;;;;;;;;;;;;;;;;;;5127828;28;19916;-78
2022/03/27 03:18:03;;;;;;;;;;;;;;;;;;5130481;28;19920;-78
2022/03/27 03:20:28;;;;;;;;;;;;;;;;;;5139940;27;19916;-78
2022/03/27 03:22:54;;;;;;;;;;;;;;;;;;5145303;27;19920;-79
2022/03/27 03:25:19;;;;;;;;;;;;;;;;;;5136431;27;19947;-80
2022/03/27 03:27:45;;;;;;;;;;;;;;;;;;5135610;27;19922;-79
2022/03/27 03:30:11;;;;;;;;;;;;;;;;;;5135347;28;19922;-79
2022/03/27 03:32:36;;;;;;;;;;;;;;;;;;5133032;28;19920;-79
2022/03/27 03:35:02;;;;;;;;;;;;;;;;;;5133190;28;19936;-78
2022/03/27 03:37:27;;;;;;;;;;;;;;;;;;5133345;28;19946;-78
2022/03/27 03:39:53;;;;;;;;;;;;;;;;;;5130478;28;19912;-79
2022/03/27 03:42:18;;;;;;;;;;;;;;;;;;5131395;28;19927;-78
2022/03/27 03:44:44;;;;;;;;;;;;;;;;;;5130807;28;19915;-78
2022/03/27 03:47:10;;;;;;;;;;;;;;;;;;5129441;28;19961;-79
2022/03/27 03:49:35;;;;;;;;;;;;;;;;;;5131020;28;19916;-78
2022/03/27 03:52:00;;;;;;;;;;;;;;;;;;5130525;28;20065;-80
2022/03/27 03:54:25;;;;;;;;;;;;;;;;;;5128233;28;19922;-78
2022/03/27 03:56:51;;;;;;;;;;;;;;;;;;5106577;28;19938;-78
2022/03/27 03:59:17;;;;;;;;;;;;;;;;;;5106168;28;19916;-80
2022/03/27 04:01:42;;;;;;;;;;;;;;;;;;5116856;28;19935;-79
2022/03/27 04:04:08;;;;;;;;;;;;;;;;;;5116112;28;19951;-80
2022/03/27 04:06:33;;;;;;;;;;;;;;;;;;5114158;28;19916;-79
2022/03/27 04:08:58;;;;;;;;;;;;;;;;;;5114234;28;19959;-80
2022/03/27 04:11:24;;;;;;;;;;;;;;;;;;5114124;28;19920;-80
2022/03/27 04:13:49;;;;;;;;;;;;;;;;;;5115670;28;19942;-80
2022/03/27 04:16:15;;;;;;;;;;;;;;;;;;5131127;28;19915;-79
2022/03/27 04:18:40;;;;;;;;;;;;;;;;;;5133628;28;19923;-79
2022/03/27 04:21:06;;;;;;;;;;;;;;;;;;5133294;27;19923;-79
2022/03/27 04:23:32;;;;;;;;;;;;;;;;;;5134308;28;19920;-79
2022/03/27 04:25:57;;;;;;;;;;;;;;;;;;5130095;28;19915;-79
2022/03/27 04:28:23;;;;;;;;;;;;;;;;;;5125753;28;19919;-79
2022/03/27 04:30:48;;;;;;;;;;;;;;;;;;5126643;28;20288;-79
2022/03/27 04:33:14;;;;;;;;;;;;;;;;;;5125915;28;19955;-79
2022/03/27 04:35:39;;;;;;;;;;;;;;;;;;5126355;28;20046;-78
2022/03/27 04:38:05;;;;;;;;;;;;;;;;;;5126353;28;19922;-78
2022/03/27 04:40:30;;;;;;;;;;;;;;;;;;5126238;28;19931;-79
2022/03/27 04:42:55;;;;;;;;;;;;;;;;;;5125883;28;20385;-79
2022/03/27 04:45:21;;;;;;;;;;;;;;;;;;5113104;28;20426;-79
2022/03/27 04:47:46;;;;;;;;;;;;;;;;;;5100368;28;20439;-77
2022/03/27 04:50:11;;;;;;;;;;;;;;;;;;5099892;28;19959;-78
2022/03/27 04:52:37;;;;;;;;;;;;;;;;;;5100526;28;19916;-78
2022/03/27 04:55:03;;;;;;;;;;;;;;;;;;5099075;28;19927;-79
2022/03/27 04:57:32;;;;;;;;;;;;;;;;;;5097334;28;19916;-79
2022/03/27 04:59:57;;;;;;;;;;;;;;;;;;5100208;28;19916;-78
2022/03/27 05:02:23;;;;;;;;;;;;;;;;;;5099381;28;19931;-79
2022/03/27 05:04:48;;;;;;;;;;;;;;;;;;5100093;28;19916;-78
2022/03/27 05:07:13;;;;;;;;;;;;;;;;;;5101470;28;19916;-78
2022/03/27 05:09:39;;;;;;;;;;;;;;;;;;5100468;28;19916;-77
2022/03/27 05:12:04;;;;;;;;;;;;;;;;;;5109356;27;19915;-79
2022/03/27 05:14:29;;;;;;;;;;;;;;;;;;5140398;27;19915;-77
2022/03/27 05:16:55;;;;;;;;;;;;;;;;;;5144404;27;19916;-78
2022/03/27 05:19:20;;;;;;;;;;;;;;;;;;5146853;27;19964;-78
2022/03/27 05:21:45;;;;;;;;;;;;;;;;;;5148942;27;20002;-78
2022/03/27 05:24:11;;;;;;;;;;;;;;;;;;5149291;27;19923;-79
2022/03/27 05:26:36;;;;;;;;;;;;;;;;;;5148881;27;19915;-79
2022/03/27 05:29:04;;;;;;;;;;;;;;;;;;5145454;27;19915;-78
2022/03/27 05:31:29;;;;;;;;;;;;;;;;;;5145351;27;20380;-78
2022/03/27 05:33:54;;;;;;;;;;;;;;;;;;5145227;27;20006;-78
2022/03/27 05:36:21;;;;;;;;;;;;;;;;;;5146755;27;19915;-78
2022/03/27 05:38:47;;;;;;;;;;;;;;;;;;5150112;27;19922;-78
2022/03/27 05:41:12;;;;;;;;;;;;;;;;;;5152847;27;19939;-79
2022/03/27 05:43:37;;;;;;;;;;;;;;;;;;5136351;27;19919;-78
2022/03/27 05:46:03;;;;;;;;;;;;;;;;;;5131981;28;19919;-78
2022/03/27 05:48:28;;;;;;;;;;;;;;;;;;5150624;27;19923;-78
2022/03/27 05:50:54;;;;;;;;;;;;;;;;;;5153137;27;19938;-81
2022/03/27 05:53:19;;;;;;;;;;;;;;;;;;5152263;27;19922;-78
2022/03/27 05:55:44;;;;;;;;;;;;;;;;;;5149028;27;19937;-79
2022/03/27 05:58:10;;;;;;;;;;;;;;;;;;5150484;27;19922;-79
2022/03/27 06:00:35;;;;;;;;;;;;;;;;;;5153710;27;19923;-79
2022/03/27 06:03:01;;;;;;;;;;;;;;;;;;5153252;27;19927;-79
2022/03/27 06:05:26;;;;;;;;;;;;;;;;;;5151857;27;19915;-78
2022/03/27 06:07:52;;;;;;;;;;;;;;;;;;5150697;27;19916;-78
2022/03/27 06:10:22;;;;;;;;;;;;;;;;;;5151950;27;19911;-79
2022/03/27 06:12:48;;;;;;;;;;;;;;;;;;5150917;28;19920;-79
2022/03/27 06:15:15;;;;;;;;;;;;;;;;;;5140438;27;19916;-79
2022/03/27 06:17:42;;;;;;;;;;;;;;;;;;5137874;27;19919;-79
2022/03/27 06:20:09;;;;;;;;;;;;;;;;;;5139303;27;19920;-79
2022/03/27 06:22:35;;;;;;;;;;;;;;;;;;5139254;27;20006;-79
2022/03/27 06:25:00;;;;;;;;;;;;;;;;;;5138831;28;19977;-78
2022/03/27 06:27:25;;;;;;;;;;;;;;;;;;5140435;27;20016;-79
2022/03/27 06:29:51;;;;;;;;;;;;;;;;;;5138802;28;19915;-78
2022/03/27 06:32:16;;;;;;;;;;;;;;;;;;5151527;27;19947;-78
2022/03/27 06:34:41;;;;;;;;;;;;;;;;;;5149469;27;19979;-79
2022/03/27 06:37:08;;;;;;;;;;;;;;;;;;5151862;27;19940;-78
2022/03/27 06:39:33;;;;;;;;;;;;;;;;;;5151171;27;19947;-80
2022/03/27 06:41:58;;;;;;;;;;;;;;;;;;5151202;27;20296;-78
2022/03/27 06:44:24;;;;;;;;;;;;;;;;;;5149500;28;19920;-79
2022/03/27 06:46:49;;;;;;;;;;;;;;;;;;5150658;27;19915;-78
2022/03/27 06:49:15;;;;;;;;;;;;;;;;;;5150532;27;19940;-78
2022/03/27 06:51:40;;;;;;;;;;;;;;;;;;5152947;27;19915;-78
2022/03/27 06:54:05;;;;;;;;;;;;;;;;;;5154074;27;19923;-78
2022/03/27 06:56:31;;;;;;;;;;;;;;;;;;5137544;27;19916;-78
2022/03/27 06:58:56;;;;;;;;;;;;;;;;;;5113298;28;20298;-78
2022/03/27 07:04:25;;;;;;;;;;;;;;;;;;5109431;28;19924;-78
2022/03/27 07:06:51;;;;;;;;;;;;;;;;;;5103522;28;20003;-79
2022/03/27 07:09:18;;;;;;;;;;;;;;;;;;5093420;28;19916;-78
2022/03/27 07:11:44;;;;;;;;;;;;;;;;;;5108822;28;19916;-78
2022/03/27 07:14:12;;;;;;;;;;;;;;;;;;5117412;28;19922;-77
2022/03/27 07:16:38;;;;;;;;;;;;;;;;;;5121362;27;19915;-78
2022/03/27 07:19:03;;;;;;;;;;;;;;;;;;5115811;28;19916;-78
2022/03/27 07:21:31;;;;;;;;;;;;;;;;;;5116208;28;19923;-77
2022/03/27 07:23:58;;;;;;;;;;;;;;;;;;5108577;28;19959;-78
2022/03/27 07:26:23;;;;;;;;;;;;;;;;;;5122772;28;19926;-78
2022/03/27 07:28:49;;;;;;;;;;;;;;;;;;5126132;28;19979;-79
2022/03/27 07:31:15;;;;;;;;;;;;;;;;;;5131887;28;19923;-78
2022/03/27 07:33:40;;;;;;;;;;;;;;;;;;5121771;28;19920;-78
2022/03/27 07:36:05;;;;;;;;;;;;;;;;;;5120071;28;19920;-78
2022/03/27 07:38:31;;;;;;;;;;;;;;;;;;5119274;28;19923;-79
2022/03/27 07:40:56;;;;;;;;;;;;;;;;;;5118343;28;19916;-81
2022/03/27 07:43:22;;;;;;;;;;;;;;;;;;5123787;28;19979;-80
2022/03/27 07:45:47;;;;;;;;;;;;;;;;;;5120210;28;19916;-79
2022/03/27 07:48:12;;;;;;;;;;;;;;;;;;5122129;28;20273;-79
2022/03/27 07:50:38;;;;;;;;;;;;;;;;;;5119248;28;19975;-77
2022/03/27 07:53:04;;;;;;;;;;;;;;;;;;5118979;28;19922;-77
2022/03/27 07:55:30;;;;;;;;;;;;;;;;;;5098963;28;20354;-77
2022/03/27 07:57:55;;;;;;;;;;;;;;;;;;5116977;28;19960;-77
2022/03/27 08:00:21;;;;;;;;;;;;;;;;;;5116473;28;19916;-77
2022/03/27 08:02:46;;;;;;;;;;;;;;;;;;5124202;27;19920;-82
2022/03/27 08:05:12;;;;;;;;;;;;;;;;;;5119031;28;19916;-78
2022/03/27 08:07:38;;;;;;;;;;;;;;;;;;5120850;27;19919;-77
2022/03/27 08:10:04;;;;;;;;;;;;;;;;;;5118173;28;19920;-78
2022/03/27 08:12:29;;;;;;;;;;;;;;;;;;5124719;28;19959;-78
2022/03/27 08:14:55;;;;;;;;;;;;;;;;;;5119257;27;19958;-77
2022/03/27 08:17:21;;;;;;;;;;;;;;;;;;5135594;27;19919;-77
2022/03/27 08:19:47;;;;;;;;;;;;;;;;;;5117291;28;19916;-77
2022/03/27 08:22:13;;;;;;;;;;;;;;;;;;5117081;28;19920;-76
2022/03/27 08:24:38;;;;;;;;;;;;;;;;;;5115586;28;20387;-77
2022/03/27 08:27:04;;;;;;;;;;;;;;;;;;5097807;28;20002;-77
2022/03/27 08:29:31;;;;;;;;;;;;;;;;;;5115392;28;19970;-77
2022/03/27 08:32:00;;;;;;;;;;;;;;;;;;5113368;28;19953;-78
2022/03/27 08:34:28;;;;;;;;;;;;;;;;;;5114410;28;19964;-77
2022/03/27 08:36:53;;;;;;;;;;;;;;;;;;5114537;28;19919;-77
2022/03/27 08:39:19;;;;;;;;;;;;;;;;;;5114495;28;20046;-78
2022/03/27 08:41:45;;;;;;;;;;;;;;;;;;5114366;28;19916;-77
2022/03/27 08:44:11;;;;;;;;;;;;;;;;;;5114245;28;20404;-77
2022/03/27 08:46:36;;;;;;;;;;;;;;;;;;5114442;28;19923;-78
2022/03/27 08:49:07;;;;;;;;;;;;;;;;;;5115438;28;19915;-78
2022/03/27 08:51:34;;;;;;;;;;;;;;;;;;5115821;28;19919;-77
2022/03/27 08:54:02;;;;;;;;;;;;;;;;;;5115555;28;20427;-78
2022/03/27 08:56:29;;;;;;;;;;;;;;;;;;5115682;28;19922;-77
2022/03/27 08:58:55;;;;;;;;;;;;;;;;;;5115632;28;19923;-78
2022/03/27 09:01:20;;;;;;;;;;;;;;;;;;5115546;28;19916;-78
2022/03/27 09:03:46;;;;;;;;;;;;;;;;;;5115276;28;19920;-78
2022/03/27 09:06:11;;;;;;;;;;;;;;;;;;5115480;28;19919;-78
2022/03/27 09:08:37;;;;;;;;;;;;;;;;;;5115111;28;19972;-77
2022/03/27 09:11:03;;;;;;;;;;;;;;;;;;5115508;28;19922;-77
2022/03/27 09:13:29;;;;;;;;;;;;;;;;;;5115377;27;20015;-78
2022/03/27 09:16:04;;;;;;;;;;;;;;;;;;5109400;28;19916;-78
2022/03/27 09:18:42;;;;;;;;;;;;;;;;;;5095042;28;19917;-77
2022/03/27 09:21:07;;;;;;;;;;;;;;;;;;5094896;28;19959;-78
2022/03/27 09:23:35;;;;;;;;;;;;;;;;;;5093421;28;20412;-78
2022/03/27 09:26:05;;;;;;;;;;;;;;;;;;5094689;28;19971;-78
2022/03/27 09:28:35;;;;;;;;;;;;;;;;;;5093217;28;19924;-78
2022/03/27 09:31:02;;;;;;;;;;;;;;;;;;5095748;28;20281;-78
2022/03/27 09:33:33;;;;;;;;;;;;;;;;;;5093124;28;19964;-78
2022/03/27 09:36:05;;;;;;;;;;;;;;;;;;5095500;28;19950;-77
2022/03/27 09:38:34;;;;;;;;;;;;;;;;;;5094653;28;20322;-78
2022/03/27 09:40:59;;;;;;;;;;;;;;;;;;5096312;28;19912;-77
2022/03/27 09:43:24;;;;;;;;;;;;;;;;;;5096006;28;19931;-78
2022/03/27 09:45:57;;;;;;;;;;;;;;;;;;5111875;27;20373;-79
2022/03/27 09:48:22;;;;;;;;;;;;;;;;;;5142710;27;19948;-78
2022/03/27 09:50:48;;;;;;;;;;;;;;;;;;5118511;27;19916;-77
2022/03/27 09:53:25;;;;;;;;;;;;;;;;;;5114888;28;19915;-78
2022/03/27 09:55:52;;;;;;;;;;;;;;;;;;5114812;28;19916;-78
2022/03/27 09:58:31;;;;;;;;;;;;;;;;;;5113373;28;19916;-77
2022/03/27 10:01:08;;;;;;;;;;;;;;;;;;5116063;28;20409;-77
2022/03/27 10:03:34;;;;;;;;;;;;;;;;;;5120565;28;19926;-77
2022/03/27 10:06:01;;;;;;;;;;;;;;;;;;5115155;28;19919;-78
2022/03/27 10:08:27;;;;;;;;;;;;;;;;;;5122777;28;20377;-78
2022/03/27 10:10:53;;;;;;;;;;;;;;;;;;5118890;28;19920;-76
2022/03/27 10:13:20;;;;;;;;;;;;;;;;;;5113679;28;19966;-77
2022/03/27 10:15:46;;;;;;;;;;;;;;;;;;5113042;28;19923;-77
2022/03/27 10:18:20;;;;;;;;;;;;;;;;;;5117839;28;19915;-81
2022/03/27 10:20:47;;;;;;;;;;;;;;;;;;5119154;28;20018;-79
2022/03/27 10:23:23;;;;;;;;;;;;;;;;;;5119043;28;19967;-81
2022/03/27 10:25:50;;;;;;;;;;;;;;;;;;5123857;28;19915;-79
2022/03/27 10:28:19;;;;;;;;;;;;;;;;;;5125589;28;19920;-79
2022/03/27 10:30:45;;;;;;;;;;;;;;;;;;5123655;28;19915;-79
2022/03/27 10:33:10;;;;;;;;;;;;;;;;;;5126608;28;19971;-78
2022/03/27 10:35:49;;;;;;;;;;;;;;;;;;5126737;28;19930;-78
2022/03/27 10:38:17;;;;;;;;;;;;;;;;;;5125152;27;20018;-81
2022/03/27 10:40:42;;;;;;;;;;;;;;;;;;5126472;28;19916;-80
2022/03/27 10:43:26;;;;;;;;;;;;;;;;;;5122490;28;19942;-83
2022/03/27 10:46:12;;;;;;;;;;;;;;;;;;5132567;27;19915;-85
2022/03/27 10:48:38;;;;;;;;;;;;;;;;;;5143062;27;19960;-86
2022/03/27 10:51:03;;;;;;;;;;;;;;;;;;5139597;27;19983;-84
2022/03/27 10:53:28;;;;;;;;;;;;;;;;;;5142297;27;19922;-86
2022/03/27 10:55:54;;;;;;;;;;;;;;;;;;5139789;27;20002;-86
2022/03/27 10:58:26;;;;;;;;;;;;;;;;;;5122896;27;19916;-85
2022/03/27 11:00:51;;;;;;;;;;;;;;;;;;5143325;27;20292;-81
2022/03/27 11:03:35;;;;;;;;;;;;;;;;;;5148371;27;19947;-82
2022/03/27 11:06:00;;;;;;;;;;;;;;;;;;5151354;27;19915;-82
2022/03/27 11:08:26;;;;;;;;;;;;;;;;;;5151187;27;19912;-81
2022/03/27 11:10:54;;;;;;;;;;;;;;;;;;5149385;27;19916;-81
2022/03/27 11:13:39;;;;;;;;;;;;;;;;;;5149484;27;19923;-81
2022/03/27 11:16:07;;;;;;;;;;;;;;;;;;5134633;27;19984;-81
2022/03/27 11:18:43;;;;;;;;;;;;;;;;;;5130122;28;20369;-81
2022/03/27 11:21:31;;;;;;;;;;;;;;;;;;5129040;28;19916;-81
2022/03/27 11:24:02;;;;;;;;;;;;;;;;;;5126788;28;20028;-79
2022/03/27 11:26:29;;;;;;;;;;;;;;;;;;5126887;28;19915;-81
2022/03/27 11:29:10;;;;;;;;;;;;;;;;;;5127276;28;20300;-81
2022/03/27 11:31:36;;;;;;;;;;;;;;;;;;5124738;28;19916;-81
2022/03/27 11:34:04;;;;;;;;;;;;;;;;;;5124009;28;20401;-81
2022/03/27 11:36:31;;;;;;;;;;;;;;;;;;5125597;27;19924;-81
2022/03/27 11:39:02;;;;;;;;;;;;;;;;;;5125502;28;19916;-81
2022/03/27 11:41:42;;;;;;;;;;;;;;;;;;5126219;28;20373;-81
2022/03/27 11:44:16;;;;;;;;;;;;;;;;;;5125397;28;19919;-81
2022/03/27 11:46:43;;;;;;;;;;;;;;;;;;5106482;28;19927;-81
2022/03/27 11:49:08;;;;;;;;;;;;;;;;;;5103271;28;19912;-81
2022/03/27 11:51:33;;;;;;;;;;;;;;;;;;5119362;28;19923;-82
2022/03/27 11:53:59;;;;;;;;;;;;;;;;;;5123991;28;20362;-82
2022/03/27 11:56:24;;;;;;;;;;;;;;;;;;5125995;28;20339;-81
2022/03/27 11:59:01;;;;;;;;;;;;;;;;;;5122409;27;20391;-81
2022/03/27 12:01:27;;;;;;;;;;;;;;;;;;5122575;28;20333;-81
2022/03/27 12:04:05;;;;;;;;;;;;;;;;;;5122459;28;19977;-81
2022/03/27 12:06:30;;;;;;;;;;;;;;;;;;5122092;28;19923;-82
2022/03/27 12:08:56;;;;;;;;;;;;;;;;;;5120261;28;20119;-81
2022/03/27 12:11:23;;;;;;;;;;;;;;;;;;5122337;28;19923;-81
2022/03/27 12:13:49;;;;;;;;;;;;;;;;;;5119649;28;19922;-81
2022/03/27 12:16:25;;;;;;;;;;;;;;;;;;5135830;27;19919;-81
2022/03/27 12:18:50;;;;;;;;;;;;;;;;;;5142177;27;20353;-81
2022/03/27 12:21:20;;;;;;;;;;;;;;;;;;5139957;27;19923;-81
2022/03/27 12:23:55;;;;;;;;;;;;;;;;;;5142215;27;20423;-81
2022/03/27 12:29:40;;;;;;;;;;;;;;;;;;5145149;27;19922;-81
2022/03/27 12:32:06;;;;;;;;;;;;;;;;;;5143677;27;19923;-82
2022/03/27 12:34:32;;;;;;;;;;;;;;;;;;5145071;27;19919;-82
2022/03/27 12:37:08;;;;;;;;;;;;;;;;;;5146783;27;19915;-82
2022/03/27 12:39:34;;;;;;;;;;;;;;;;;;5149061;27;19915;-82
2022/03/27 12:41:59;;;;;;;;;;;;;;;;;;5148657;27;19936;-82
2022/03/27 12:44:24;;;;;;;;;;;;;;;;;;5146996;27;20014;-81
2022/03/27 12:46:50;;;;;;;;;;;;;;;;;;5129032;27;19920;-82
2022/03/27 12:49:16;;;;;;;;;;;;;;;;;;5126378;28;19951;-82
2022/03/27 12:51:41;;;;;;;;;;;;;;;;;;5127457;28;19915;-82
2022/03/27 12:54:08;;;;;;;;;;;;;;;;;;5127826;28;19941;-82
2022/03/27 12:56:33;;;;;;;;;;;;;;;;;;5127347;28;19930;-83
2022/03/27 12:59:18;;;;;;;;;;;;;;;;;;5127283;28;20288;-82
2022/03/27 13:01:43;;;;;;;;;;;;;;;;;;5123818;28;19927;-81
2022/03/27 13:04:09;;;;;;;;;;;;;;;;;;5125869;28;20308;-82
2022/03/27 13:06:38;;;;;;;;;;;;;;;;;;5125143;28;19916;-81
2022/03/27 13:09:04;;;;;;;;;;;;;;;;;;5125564;28;19923;-82
2022/03/27 13:11:30;;;;;;;;;;;;;;;;;;5125323;28;19916;-81
2022/03/27 13:14:02;;;;;;;;;;;;;;;;;;5124149;28;19964;-81
2022/03/27 13:16:35;;;;;;;;;;;;;;;;;;5121088;27;19916;-82
2022/03/27 13:19:04;;;;;;;;;;;;;;;;;;5104414;28;20401;-81
2022/03/27 13:21:31;;;;;;;;;;;;;;;;;;5103656;28;19916;-82
2022/03/27 13:23:57;;;;;;;;;;;;;;;;;;5103344;28;19920;-82
2022/03/27 13:26:22;;;;;;;;;;;;;;;;;;5101121;28;19924;-81
2022/03/27 13:28:48;;;;;;;;;;;;;;;;;;5103262;28;19916;-81
2022/03/27 13:31:13;;;;;;;;;;;;;;;;;;5102913;28;19951;-81
2022/03/27 13:33:39;;;;;;;;;;;;;;;;;;5101973;28;19920;-82
2022/03/27 13:36:04;;;;;;;;;;;;;;;;;;5101477;28;19916;-82
2022/03/27 13:38:29;;;;;;;;;;;;;;;;;;5102213;28;19916;-81
2022/03/27 13:43:39;;;;;;;;;;;;;;;;;;5101162;28;19927;-81
2022/03/27 13:46:04;;;;;;;;;;;;;;;;;;5104295;28;19911;-81
2022/03/27 13:48:29;;;;;;;;;;;;;;;;;;5118729;27;19916;-81
2022/03/27 13:50:55;;;;;;;;;;;;;;;;;;5141661;27;20241;-82
2022/03/27 13:53:20;;;;;;;;;;;;;;;;;;5144490;27;19919;-82
2022/03/27 13:55:46;;;;;;;;;;;;;;;;;;5145810;27;19915;-81
2022/03/27 13:58:11;;;;;;;;;;;;;;;;;;5131822;27;19927;-82
2022/03/27 14:00:37;;;;;;;;;;;;;;;;;;5109549;28;20259;-82
2022/03/27 14:03:02;;;;;;;;;;;;;;;;;;5105077;28;20495;-83
2022/03/27 14:05:27;;;;;;;;;;;;;;;;;;5102578;28;19916;-83
2022/03/27 14:07:54;;;;;;;;;;;;;;;;;;5101270;28;19976;-82
2022/03/27 14:10:19;;;;;;;;;;;;;;;;;;5104776;28;19916;-83
2022/03/27 14:12:45;;;;;;;;;;;;;;;;;;5103055;28;19937;-81
2022/03/27 14:15:10;;;;;;;;;;;;;;;;;;5107909;28;19916;-83
2022/03/27 14:17:36;;;;;;;;;;;;;;;;;;5123170;28;20373;-81
2022/03/27 14:20:02;;;;;;;;;;;;;;;;;;5122250;28;19937;-80
2022/03/27 14:22:27;;;;;;;;;;;;;;;;;;5121783;28;19920;-78
2022/03/27 14:24:53;;;;;;;;;;;;;;;;;;5120266;28;19927;-80
2022/03/27 14:27:18;;;;;;;;;;;;;;;;;;5118243;28;20297;-78
2022/03/27 14:29:44;;;;;;;;;;;;;;;;;;5120327;28;20273;-78
2022/03/27 14:32:09;;;;;;;;;;;;;;;;;;5118210;28;19915;-79
2022/03/27 14:34:34;;;;;;;;;;;;;;;;;;5118186;28;20010;-78
2022/03/27 14:37:00;;;;;;;;;;;;;;;;;;5118668;28;19915;-78
2022/03/27 14:39:25;;;;;;;;;;;;;;;;;;5117423;28;19916;-78
2022/03/27 14:41:51;;;;;;;;;;;;;;;;;;5114832;28;19916;-77
2022/03/27 14:44:19;;;;;;;;;;;;;;;;;;5113732;28;22322;-77
2022/03/27 14:46:45;;;;;;;;;;;;;;;;;;5099965;28;19923;-81
2022/03/27 14:49:10;;;;;;;;;;;;;;;;;;5098356;28;19927;-81
2022/03/27 14:51:35;;;;;;;;;;;;;;;;;;5098172;28;19923;-82
2022/03/27 14:56:45;;;;;;;;;;;;;;;;;;5099467;28;19964;-80
2022/03/27 14:59:10;;;;;;;;;;;;;;;;;;5096337;28;19916;-78
2022/03/27 15:01:35;;;;;;;;;;;;;;;;;;5097660;28;20003;-78
2022/03/27 15:04:01;;;;;;;;;;;;;;;;;;5097213;28;19927;-78
2022/03/27 15:06:27;;;;;;;;;;;;;;;;;;5097019;28;19916;-78
2022/03/27 15:08:52;;;;;;;;;;;;;;;;;;5100221;28;19962;-78
2022/03/27 15:11:18;;;;;;;;;;;;;;;;;;5100680;28;19916;-78
2022/03/27 15:13:45;;;;;;;;;;;;;;;;;;5107472;28;19927;-77
2022/03/27 15:16:11;;;;;;;;;;;;;;;;;;5121281;28;20373;-78
2022/03/27 15:18:36;;;;;;;;;;;;;;;;;;5120040;28;19936;-77
2022/03/27 15:21:01;;;;;;;;;;;;;;;;;;5120111;28;20004;-77
2022/03/27 15:23:27;;;;;;;;;;;;;;;;;;5102305;28;19976;-77
2022/03/27 15:25:52;;;;;;;;;;;;;;;;;;5120882;27;19916;-77
2022/03/27 15:28:18;;;;;;;;;;;;;;;;;;5120791;28;20301;-77
2022/03/27 15:30:43;;;;;;;;;;;;;;;;;;5120289;28;19915;-77
2022/03/27 15:33:08;;;;;;;;;;;;;;;;;;5119921;28;19916;-77
2022/03/27 15:35:34;;;;;;;;;;;;;;;;;;5120359;28;19927;-78
2022/03/27 15:38:00;;;;;;;;;;;;;;;;;;5120128;28;19949;-77
2022/03/27 15:40:25;;;;;;;;;;;;;;;;;;5120891;28;19916;-78
2022/03/27 15:42:51;;;;;;;;;;;;;;;;;;5121447;28;19927;-77
2022/03/27 15:45:17;;;;;;;;;;;;;;;;;;5108695;28;20040;-78
2022/03/27 15:47:43;;;;;;;;;;;;;;;;;;5097961;28;19916;-78
2022/03/27 15:50:11;;;;;;;;;;;;;;;;;;5097337;28;20353;-78
2022/03/27 15:52:37;;;;;;;;;;;;;;;;;;5098924;28;19962;-78
2022/03/27 15:55:03;;;;;;;;;;;;;;;;;;5098674;28;19916;-80
2022/03/27 15:57:28;;;;;;;;;;;;;;;;;;5101169;28;20010;-79
2022/03/27 15:59:54;;;;;;;;;;;;;;;;;;5098902;28;19966;-79
2022/03/27 16:02:19;;;;;;;;;;;;;;;;;;5099944;28;19916;-78
2022/03/27 16:04:44;;;;;;;;;;;;;;;;;;5099045;28;19923;-78
2022/03/27 16:07:09;;;;;;;;;;;;;;;;;;5101099;28;19923;-78
2022/03/27 16:09:35;;;;;;;;;;;;;;;;;;5096646;28;19916;-76
2022/03/27 16:12:00;;;;;;;;;;;;;;;;;;5098978;28;19959;-78
2022/03/27 16:14:26;;;;;;;;;;;;;;;;;;5099972;28;19916;-78
2022/03/27 16:16:51;;;;;;;;;;;;;;;;;;5098140;28;20364;-78
2022/03/27 16:19:17;;;;;;;;;;;;;;;;;;5098531;28;19916;-79
2022/03/27 16:21:47;;;;;;;;;;;;;;;;;;5100450;28;19937;-79
2022/03/27 16:24:12;;;;;;;;;;;;;;;;;;5099287;28;19985;-79
2022/03/27 16:26:38;;;;;;;;;;;;;;;;;;5099591;28;20407;-79
2022/03/27 16:29:04;;;;;;;;;;;;;;;;;;5099345;28;19920;-79
2022/03/27 16:31:29;;;;;;;;;;;;;;;;;;5101135;28;20011;-79
2022/03/27 16:33:54;;;;;;;;;;;;;;;;;;5101527;28;19931;-78
2022/03/27 16:36:20;;;;;;;;;;;;;;;;;;5100975;28;19916;-78
2022/03/27 16:38:45;;;;;;;;;;;;;;;;;;5100069;28;19916;-78
2022/03/27 16:41:11;;;;;;;;;;;;;;;;;;5101695;28;19916;-79
2022/03/27 16:43:36;;;;;;;;;;;;;;;;;;5100770;28;19927;-78
2022/03/27 16:46:01;;;;;;;;;;;;;;;;;;5106552;27;19942;-78
2022/03/27 16:48:27;;;;;;;;;;;;;;;;;;5141879;27;20429;-78
2022/03/27 16:50:52;;;;;;;;;;;;;;;;;;5141732;27;20376;-78
2022/03/27 16:53:18;;;;;;;;;;;;;;;;;;5141436;27;19937;-78
2022/03/27 16:55:44;;;;;;;;;;;;;;;;;;5142116;27;19964;-78